Time;durP1;ratioP1;P1;durP2;ratioP2;P2;SDS_P1;SDS_P2;PMS_P1;PMS_P2;Temp;Humidity;BMP_temperature;BMP_pressure;BME280_temperature;BME280_humidity;BME280_pressure;Samples;Min_cycle;Max_cycle;Signal;HPM_P1;HPM_P2
2023/01/27 00:01:49;;;;;;;29.17;16.15;;;1.20;99.90;;;;;;5097375;28;20047;-58
2023/01/27 00:04:15;;;;;;;24.13;14.70;;;1.20;99.90;;;;;;5097547;28;20032;-58
2023/01/27 00:06:41;;;;;;;20.65;12.65;;;1.20;99.90;;;;;;5097426;28;20028;-58
2023/01/27 00:09:07;;;;;;;28.75;15.95;;;1.20;99.90;;;;;;5097349;28;20378;-58
2023/01/27 00:14:28;;;;;;;39.17;23.33;;;1.10;99.90;;;;;;5059337;28;20032;-58
2023/01/27 00:16:54;;;;;;;22.40;13.23;;;1.20;99.90;;;;;;5097252;28;20066;-58
2023/01/27 00:19:20;;;;;;;26.38;14.02;;;1.40;99.90;;;;;;5097146;28;20036;-58
2023/01/27 00:24:36;;;;;;;35.42;18.10;;;1.30;99.90;;;;;;5097053;28;20059;-58
2023/01/27 00:27:03;;;;;;;43.63;23.63;;;1.30;99.90;;;;;;5113179;28;20091;-58
2023/01/27 00:29:29;;;;;;;45.78;24.38;;;1.20;99.90;;;;;;5117435;28;20031;-58
2023/01/27 00:34:40;;;;;;;54.05;26.48;;;1.20;99.90;;;;;;5115936;28;20035;-58
2023/01/27 00:37:07;;;;;;;46.00;22.95;;;1.20;99.90;;;;;;5115962;28;20028;-58
2023/01/27 00:39:33;;;;;;;44.53;22.15;;;1.30;99.90;;;;;;5117369;28;20020;-58
2023/01/27 00:41:59;;;;;;;45.03;21.42;;;1.30;99.90;;;;;;5117155;28;20083;-58
2023/01/27 00:44:26;;;;;;;32.72;18.77;;;1.40;99.90;;;;;;5117135;28;20031;-58
2023/01/27 00:46:52;;;;;;;33.95;18.70;;;1.40;99.90;;;;;;5115797;28;20024;-58
2023/01/27 00:49:18;;;;;;;38.88;19.90;;;1.40;99.90;;;;;;5116890;28;20081;-58
2023/01/27 00:51:44;;;;;;;32.92;18.50;;;1.40;99.90;;;;;;5116980;28;20028;-58
2023/01/27 00:54:10;;;;;;;32.00;16.92;;;1.40;99.90;;;;;;5115662;28;20385;-58
2023/01/27 00:56:37;;;;;;;28.45;16.83;;;1.40;99.90;;;;;;5115462;28;20023;-58
2023/01/27 00:59:03;;;;;;;33.78;17.48;;;1.30;99.90;;;;;;5116871;27;20172;-58
2023/01/27 01:01:29;;;;;;;34.72;17.98;;;1.40;99.90;;;;;;5114970;28;20054;-58
2023/01/27 01:03:59;;;;;;;23.30;14.40;;;1.30;99.90;;;;;;5115342;28;20114;-58
2023/01/27 01:06:26;;;;;;;23.50;12.93;;;1.20;99.90;;;;;;5116714;28;20028;-58
2023/01/27 01:08:52;;;;;;;23.95;13.35;;;1.20;99.90;;;;;;5115793;28;20488;-58
2023/01/27 01:11:19;;;;;;;22.83;13.48;;;1.20;99.90;;;;;;5115218;28;20042;-58
2023/01/27 01:13:46;;;;;;;27.27;14.63;;;1.20;99.90;;;;;;5116565;28;20419;-58
2023/01/27 01:16:15;;;;;;;65.55;27.45;;;1.40;99.90;;;;;;5116607;28;20073;-58
2023/01/27 01:18:42;;;;;;;29.10;15.95;;;1.30;99.90;;;;;;5115077;28;20032;-58
2023/01/27 01:21:09;;;;;;;24.27;14.35;;;1.30;99.90;;;;;;5116344;28;20073;-58
2023/01/27 01:23:42;;;;;;;23.50;14.35;;;1.30;99.90;;;;;;5116194;28;20023;-58
2023/01/27 01:26:10;;;;;;;27.90;14.57;;;1.40;99.90;;;;;;5116266;28;20024;-58
2023/01/27 01:28:37;;;;;;;25.70;14.32;;;1.30;99.90;;;;;;5116197;28;20057;-58
2023/01/27 01:31:08;;;;;;;34.67;16.95;;;1.20;99.90;;;;;;5116038;28;20472;-58
2023/01/27 01:33:35;;;;;;;27.70;15.80;;;1.10;99.90;;;;;;5116440;28;20035;-58
2023/01/27 01:36:10;;;;;;;38.00;18.20;;;1.10;99.90;;;;;;5115904;28;20118;-58
2023/01/27 01:38:36;;;;;;;35.63;19.48;;;1.20;99.90;;;;;;5116104;28;20031;-58
2023/01/27 01:41:03;;;;;;;35.70;19.27;;;1.20;99.90;;;;;;5114759;28;20039;-58
2023/01/27 01:43:29;;;;;;;35.42;19.00;;;1.10;99.90;;;;;;5115941;28;20032;-58
2023/01/27 01:45:59;;;;;;;38.63;20.35;;;1.20;99.90;;;;;;5115929;28;20035;-58
2023/01/27 01:48:36;;;;;;;39.35;22.35;;;1.30;99.90;;;;;;5114632;28;20340;-58
2023/01/27 01:51:20;;;;;;;41.40;22.17;;;1.20;99.90;;;;;;5114543;28;20042;-58
2023/01/27 01:54:00;;;;;;;38.25;20.27;;;1.20;99.90;;;;;;5115679;28;20027;-58
2023/01/27 01:56:38;;;;;;;44.00;19.90;;;1.20;99.90;;;;;;5114439;28;20031;-58
2023/01/27 01:59:13;;;;;;;44.22;20.58;;;1.30;99.90;;;;;;5114280;28;20027;-58
2023/01/27 02:01:40;;;;;;;34.78;19.33;;;1.10;99.90;;;;;;5114130;28;20047;-58
2023/01/27 02:04:11;;;;;;;35.85;18.70;;;1.10;99.90;;;;;;5115446;28;20035;-58
2023/01/27 02:07:07;;;;;;;35.38;19.75;;;1.20;99.90;;;;;;5115594;28;20039;-58
2023/01/27 02:09:33;;;;;;;34.92;20.45;;;1.30;99.90;;;;;;5115345;28;20033;-58
2023/01/27 02:12:00;;;;;;;36.92;19.92;;;1.20;99.90;;;;;;5114063;28;20067;-58
2023/01/27 02:14:26;;;;;;;30.88;17.90;;;1.20;99.90;;;;;;5115272;28;20515;-58
2023/01/27 02:16:53;;;;;;;37.15;19.00;;;1.20;99.90;;;;;;5113738;28;20355;-58
2023/01/27 02:19:34;;;;;;;32.17;17.08;;;1.20;99.90;;;;;;5115304;28;20030;-58
2023/01/27 02:22:05;;;;;;;37.33;17.90;;;1.20;99.90;;;;;;5115311;28;20050;-58
2023/01/27 02:24:41;;;;;;;36.85;17.30;;;1.20;99.90;;;;;;5115254;28;20148;-58
2023/01/27 02:27:07;;;;;;;33.42;17.85;;;1.20;99.90;;;;;;5113805;28;20028;-58
2023/01/27 02:29:33;;;;;;;34.10;16.77;;;1.10;99.90;;;;;;5113811;28;20026;-58
2023/01/27 02:31:59;;;;;;;36.90;18.77;;;1.10;99.90;;;;;;5115101;28;20110;-58
2023/01/27 02:34:29;;;;;;;35.10;17.60;;;1.10;99.90;;;;;;5114951;28;20032;-58
2023/01/27 02:37:01;;;;;;;35.30;19.27;;;1.10;99.90;;;;;;5115113;28;20031;-58
2023/01/27 02:39:34;;;;;;;31.48;16.88;;;1.10;99.90;;;;;;5113775;28;20260;-58
2023/01/27 02:42:03;;;;;;;31.65;16.85;;;1.30;99.90;;;;;;5113750;28;20087;-58
2023/01/27 02:44:29;;;;;;;36.42;17.40;;;1.20;99.90;;;;;;5113705;28;20028;-58
2023/01/27 02:46:55;;;;;;;30.75;15.75;;;1.30;99.90;;;;;;5113647;28;20042;-58
2023/01/27 02:49:21;;;;;;;33.70;17.48;;;1.30;99.90;;;;;;5113670;28;20027;-58
2023/01/27 02:51:46;;;;;;;32.80;17.25;;;1.20;99.90;;;;;;5113502;28;20031;-58
2023/01/27 02:54:13;;;;;;;33.90;16.90;;;1.10;99.90;;;;;;5113383;28;20030;-58
2023/01/27 02:56:40;;;;;;;28.60;16.15;;;1.20;99.90;;;;;;5113607;28;20024;-58
2023/01/27 02:59:07;;;;;;;31.50;17.23;;;1.30;99.90;;;;;;5113521;28;20507;-58
2023/01/27 03:01:38;;;;;;;35.20;18.30;;;1.30;99.90;;;;;;5113444;28;20052;-58
2023/01/27 03:04:04;;;;;;;30.00;16.40;;;1.30;99.90;;;;;;5114774;28;20019;-58
2023/01/27 03:06:30;;;;;;;31.88;15.73;;;1.40;99.90;;;;;;5113523;28;20247;-58
2023/01/27 03:08:57;;;;;;;22.63;13.85;;;1.30;99.90;;;;;;5113286;28;20447;-58
2023/01/27 03:14:08;;;;;;;28.08;14.90;;;1.20;99.90;;;;;;5113322;28;20400;-58
2023/01/27 03:19:19;;;;;;;27.42;15.18;;;1.20;99.90;;;;;;5113217;28;20039;-58
2023/01/27 03:21:49;;;;;;;24.45;13.38;;;1.20;99.90;;;;;;5114579;28;20507;-58
2023/01/27 03:24:16;;;;;;;23.45;13.55;;;1.10;99.90;;;;;;5113387;28;20019;-58
2023/01/27 03:26:42;;;;;;;31.02;15.95;;;1.20;99.90;;;;;;5113199;28;20076;-58
2023/01/27 03:31:56;;;;;;;36.80;18.38;;;1.10;99.90;;;;;;5115165;28;20028;-58
2023/01/27 03:34:22;;;;;;;29.15;16.00;;;1.00;99.90;;;;;;5117141;28;20039;-58
2023/01/27 03:47:50;;;;;;;22.42;13.05;;;1.10;99.90;;;;;;5118279;28;20631;-58
2023/01/27 03:50:18;;;;;;;25.25;14.52;;;1.10;99.90;;;;;;5117974;28;20076;-58
2023/01/27 03:53:01;;;;;;;19.80;11.90;;;1.10;99.90;;;;;;5118009;28;20035;-58
2023/01/27 03:55:32;;;;;;;25.73;13.75;;;1.10;99.90;;;;;;5118053;27;20110;-58
2023/01/27 03:58:17;;;;;;;22.25;12.30;;;1.20;99.90;;;;;;5117979;27;20103;-58
2023/01/27 04:00:44;;;;;;;27.67;13.68;;;1.10;99.90;;;;;;5117743;28;20113;-58
2023/01/27 04:08:42;;;;;;;28.67;13.50;;;1.10;99.90;;;;;;5117832;28;20031;-58
2023/01/27 04:13:53;;;;;;;25.23;13.57;;;1.20;99.90;;;;;;5117794;28;20032;-58
2023/01/27 04:16:19;;;;;;;24.17;12.20;;;1.10;99.90;;;;;;5117558;28;20043;-58
2023/01/27 04:18:45;;;;;;;22.25;11.85;;;1.20;99.90;;;;;;5117389;28;20049;-58
2023/01/27 04:21:12;;;;;;;24.38;12.77;;;1.10;99.90;;;;;;5117621;28;20015;-58
2023/01/27 04:23:38;;;;;;;22.50;12.82;;;1.10;99.90;;;;;;5117395;28;20028;-58
2023/01/27 04:26:04;;;;;;;23.40;13.95;;;1.10;99.90;;;;;;5117328;28;20366;-58
2023/01/27 04:28:30;;;;;;;21.63;13.02;;;1.10;99.90;;;;;;5117387;28;20043;-58
2023/01/27 04:30:58;;;;;;;20.30;12.10;;;1.20;99.90;;;;;;5117454;28;20028;-58
2023/01/27 04:33:23;;;;;;;20.95;12.43;;;1.20;99.90;;;;;;5117416;28;20034;-58
2023/01/27 04:35:50;;;;;;;23.73;12.52;;;1.10;99.90;;;;;;5116008;28;20032;-58
2023/01/27 04:38:15;;;;;;;19.00;11.55;;;1.10;99.90;;;;;;5117187;28;20051;-58
2023/01/27 04:40:42;;;;;;;17.20;10.23;;;1.10;99.90;;;;;;5117146;28;20081;-58
2023/01/27 04:43:08;;;;;;;16.35;9.93;;;1.00;99.90;;;;;;5116229;28;20107;-58
2023/01/27 04:45:34;;;;;;;19.02;10.77;;;1.00;99.90;;;;;;5116734;28;20081;-58
2023/01/27 04:48:00;;;;;;;18.70;11.20;;;0.80;99.90;;;;;;5116843;28;20042;-58
2023/01/27 04:50:26;;;;;;;19.75;12.18;;;0.80;99.90;;;;;;5117036;28;20362;-58
2023/01/27 04:52:52;;;;;;;20.55;11.27;;;0.80;99.90;;;;;;5116811;28;20046;-58
2023/01/27 04:55:18;;;;;;;22.75;12.77;;;0.80;99.90;;;;;;5116717;28;20028;-58
2023/01/27 04:57:44;;;;;;;20.98;11.63;;;0.90;99.90;;;;;;5116714;28;20392;-58
2023/01/27 05:00:11;;;;;;;23.33;12.85;;;1.00;99.90;;;;;;5116811;28;20050;-58
2023/01/27 05:02:37;;;;;;;25.42;13.23;;;1.00;99.90;;;;;;5116490;28;20039;-58
2023/01/27 05:05:03;;;;;;;25.33;13.73;;;1.10;99.90;;;;;;5116609;28;20123;-58
2023/01/27 05:07:30;;;;;;;24.92;13.18;;;1.10;99.90;;;;;;5116543;28;20355;-58
2023/01/27 05:09:56;;;;;;;31.95;13.77;;;1.00;99.90;;;;;;5116666;28;20023;-58
2023/01/27 05:12:22;;;;;;;32.55;13.40;;;1.00;99.90;;;;;;5116501;28;20384;-58
2023/01/27 05:14:48;;;;;;;23.60;12.93;;;1.10;99.90;;;;;;5116303;28;20028;-58
2023/01/27 05:17:13;;;;;;;26.55;12.98;;;1.10;99.90;;;;;;5116554;28;20047;-58
2023/01/27 05:19:40;;;;;;;19.70;11.57;;;1.30;99.90;;;;;;5116340;28;20031;-58
2023/01/27 05:22:06;;;;;;;19.85;12.48;;;1.20;99.90;;;;;;5116244;28;20023;-58
2023/01/27 05:24:32;;;;;;;27.80;13.52;;;1.10;99.90;;;;;;5116240;28;20063;-58
2023/01/27 05:26:58;;;;;;;37.25;17.30;;;1.20;99.90;;;;;;5116248;28;20023;-58
2023/01/27 05:29:23;;;;;;;34.20;18.58;;;1.30;99.90;;;;;;5116214;28;20023;-58
2023/01/27 05:31:49;;;;;;;34.28;19.13;;;1.30;99.90;;;;;;5116091;28;20400;-58
2023/01/27 05:34:16;;;;;;;55.88;23.15;;;1.30;99.90;;;;;;5116029;28;20020;-58
2023/01/27 05:36:42;;;;;;;28.42;14.43;;;1.20;99.90;;;;;;5115786;28;20031;-58
2023/01/27 05:39:10;;;;;;;20.17;11.75;;;1.30;99.90;;;;;;5116084;28;20110;-58
2023/01/27 05:41:36;;;;;;;24.08;13.15;;;1.30;99.90;;;;;;5116034;28;20031;-58
2023/01/27 05:44:03;;;;;;;22.10;13.23;;;1.10;99.90;;;;;;5115787;28;20490;-58
2023/01/27 05:46:31;;;;;;;20.55;12.88;;;1.10;99.90;;;;;;5115761;28;20108;-58
2023/01/27 05:48:59;;;;;;;22.33;13.02;;;0.90;99.90;;;;;;5115806;28;20055;-58
2023/01/27 05:51:29;;;;;;;35.72;17.88;;;0.90;99.90;;;;;;5115656;28;20038;-58
2023/01/27 05:53:55;;;;;;;69.78;29.92;;;0.90;99.90;;;;;;5115708;28;20516;-58
2023/01/27 05:56:21;;;;;;;51.78;26.33;;;0.80;99.90;;;;;;5115232;28;20035;-58
2023/01/27 05:58:47;;;;;;;63.67;29.98;;;0.80;99.90;;;;;;5115584;28;20447;-58
2023/01/27 06:01:18;;;;;;;45.70;24.42;;;0.90;99.90;;;;;;5115469;28;20043;-58
2023/01/27 06:03:45;;;;;;;45.20;24.17;;;0.90;99.90;;;;;;5115470;28;20035;-58
2023/01/27 06:06:13;;;;;;;47.85;25.15;;;0.90;99.90;;;;;;5115423;28;20110;-58
2023/01/27 06:08:39;;;;;;;40.67;23.00;;;0.80;99.90;;;;;;5115516;28;20042;-58
2023/01/27 06:11:06;;;;;;;40.28;23.02;;;0.80;99.90;;;;;;5115446;28;20362;-58
2023/01/27 06:13:34;;;;;;;33.15;20.15;;;0.90;99.90;;;;;;5115209;28;20469;-58
2023/01/27 06:16:06;;;;;;;36.05;20.70;;;0.90;99.90;;;;;;5115279;28;20035;-58
2023/01/27 06:18:32;;;;;;;63.42;28.65;;;0.90;99.90;;;;;;5115267;28;20055;-58
2023/01/27 06:21:02;;;;;;;27.05;15.15;;;1.00;99.90;;;;;;5115346;28;20019;-58
2023/01/27 06:23:28;;;;;;;30.95;17.67;;;0.90;99.90;;;;;;5115222;28;20069;-58
2023/01/27 06:25:59;;;;;;;36.92;20.42;;;1.00;99.90;;;;;;5114842;28;20079;-58
2023/01/27 06:28:25;;;;;;;32.28;17.88;;;1.10;99.90;;;;;;5114858;28;20468;-58
2023/01/27 06:30:51;;;;;;;36.90;17.80;;;1.20;99.90;;;;;;5113949;28;20027;-58
2023/01/27 06:33:17;;;;;;;35.42;17.88;;;1.20;99.90;;;;;;5113254;28;20108;-58
2023/01/27 06:35:44;;;;;;;31.55;17.23;;;1.20;99.90;;;;;;5114447;28;20027;-58
2023/01/27 06:38:14;;;;;;;63.17;28.05;;;1.10;99.90;;;;;;5113663;28;20043;-58
2023/01/27 06:40:40;;;;;;;70.45;33.03;;;1.10;99.90;;;;;;5114740;28;20053;-58
2023/01/27 06:43:12;;;;;;;71.13;34.75;;;1.10;99.90;;;;;;5114704;28;20520;-58
2023/01/27 06:45:38;;;;;;;67.15;31.77;;;1.10;99.90;;;;;;5113940;28;20031;-58
2023/01/27 06:48:04;;;;;;;44.42;22.83;;;1.20;99.90;;;;;;5114560;28;20066;-58
2023/01/27 06:50:30;;;;;;;37.08;20.40;;;1.30;99.90;;;;;;5111002;28;20527;-58
2023/01/27 06:53:01;;;;;;;46.75;29.65;;;1.30;99.90;;;;;;5114648;28;20020;-58
2023/01/27 06:55:28;;;;;;;38.72;20.70;;;1.30;99.90;;;;;;5102830;28;20032;-58
2023/01/27 06:57:54;;;;;;;34.83;18.67;;;1.30;99.90;;;;;;5094005;28;20034;-58
2023/01/27 07:00:20;;;;;;;30.98;17.38;;;1.40;99.90;;;;;;5099375;28;20024;-58
2023/01/27 07:02:47;;;;;;;28.05;17.35;;;1.40;99.90;;;;;;5099898;28;20097;-58
2023/01/27 07:05:13;;;;;;;34.88;17.92;;;1.40;99.90;;;;;;5106108;28;20027;-58
2023/01/27 07:07:39;;;;;;;38.38;20.60;;;1.40;99.90;;;;;;5112647;28;20027;-58
2023/01/27 07:10:06;;;;;;;41.15;22.63;;;1.40;99.90;;;;;;5117209;28;20028;-58
2023/01/27 07:12:36;;;;;;;40.55;22.05;;;1.40;99.90;;;;;;5118695;28;20030;-58
2023/01/27 07:15:07;;;;;;;41.58;20.08;;;1.30;99.90;;;;;;5118450;28;20029;-58
2023/01/27 07:17:37;;;;;;;60.30;25.52;;;1.40;99.90;;;;;;5117107;28;20035;-59
2023/01/27 07:20:04;;;;;;;42.45;24.23;;;1.50;99.90;;;;;;5118399;28;20042;-59
2023/01/27 07:22:30;;;;;;;49.42;24.88;;;1.60;99.90;;;;;;5118568;28;20023;-59
2023/01/27 07:24:56;;;;;;;51.80;23.15;;;1.50;99.90;;;;;;5118222;28;20048;-59
2023/01/27 07:27:23;;;;;;;43.22;24.35;;;1.70;99.90;;;;;;5118343;28;20177;-59
2023/01/27 07:29:49;;;;;;;53.38;28.13;;;1.60;99.90;;;;;;5111467;28;20032;-58
2023/01/27 07:32:16;;;;;;;51.90;26.27;;;1.70;99.90;;;;;;5102703;28;20028;-59
2023/01/27 07:34:47;;;;;;;49.28;24.92;;;1.80;99.90;;;;;;5107274;28;20385;-59
2023/01/27 07:37:13;;;;;;;51.08;25.70;;;1.80;99.90;;;;;;5116244;28;20049;-59
2023/01/27 07:39:39;;;;;;;73.53;34.28;;;1.90;99.90;;;;;;5115921;28;20419;-58
2023/01/27 07:42:06;;;;;;;94.20;47.67;;;1.90;99.90;;;;;;5108640;28;20027;-59
2023/01/27 07:44:32;;;;;;;88.05;42.45;;;1.90;99.90;;;;;;5108770;28;20350;-59
2023/01/27 07:46:58;;;;;;;57.85;29.98;;;1.90;99.90;;;;;;5103885;28;20107;-59
2023/01/27 07:49:25;;;;;;;51.72;24.48;;;2.00;99.90;;;;;;5101736;28;20032;-59
2023/01/27 07:51:54;;;;;;;67.53;33.38;;;2.00;99.90;;;;;;5102611;28;20032;-59
2023/01/27 07:54:20;;;;;;;75.38;33.40;;;2.00;99.90;;;;;;5108220;28;20035;-59
2023/01/27 07:56:46;;;;;;;61.63;30.13;;;2.10;99.90;;;;;;5101233;28;20492;-59
2023/01/27 07:59:12;;;;;;;50.25;26.85;;;2.20;99.90;;;;;;5106106;28;20030;-59
2023/01/27 08:01:40;;;;;;;63.47;28.38;;;2.10;99.90;;;;;;5110675;28;20501;-59
2023/01/27 08:04:14;;;;;;;49.58;25.27;;;2.20;99.90;;;;;;5109508;28;20536;-58
2023/01/27 08:06:39;;;;;;;52.60;25.13;;;2.30;99.90;;;;;;5117602;28;20019;-58
2023/01/27 08:09:06;;;;;;;55.17;27.20;;;2.30;99.90;;;;;;5117917;28;20373;-59
2023/01/27 08:11:32;;;;;;;47.50;22.70;;;2.10;99.90;;;;;;5118347;27;20031;-59
2023/01/27 08:13:58;;;;;;;42.30;22.50;;;2.20;99.90;;;;;;5118141;28;20073;-59
2023/01/27 08:16:24;;;;;;;50.60;23.95;;;2.20;99.90;;;;;;5118081;28;20063;-59
2023/01/27 08:18:52;;;;;;;45.20;23.90;;;2.10;99.90;;;;;;5116454;28;20027;-66
2023/01/27 08:21:24;;;;;;;44.22;23.55;;;2.20;99.90;;;;;;5110952;28;20036;-66
2023/01/27 08:23:52;;;;;;;47.78;21.70;;;2.20;99.90;;;;;;5100950;28;21048;-66
2023/01/27 08:26:18;;;;;;;47.00;25.67;;;2.30;99.90;;;;;;5108262;28;20028;-66
2023/01/27 08:28:44;;;;;;;65.85;30.70;;;2.30;99.90;;;;;;5116284;28;20122;-66
2023/01/27 08:31:15;;;;;;;67.03;30.92;;;2.30;99.90;;;;;;5117944;27;20457;-66
2023/01/27 08:33:44;;;;;;;55.80;28.88;;;2.30;99.90;;;;;;5117656;28;20028;-66
2023/01/27 08:36:13;;;;;;;45.65;22.40;;;2.20;99.90;;;;;;5116274;28;20024;-66
2023/01/27 08:38:40;;;;;;;50.85;25.83;;;2.30;99.90;;;;;;5117626;28;20023;-66
2023/01/27 08:41:15;;;;;;;75.50;31.17;;;2.30;99.90;;;;;;5115719;27;20026;-66
2023/01/27 08:43:44;;;;;;;141.70;50.22;;;2.20;99.90;;;;;;5109001;28;20544;-66
2023/01/27 08:46:10;;;;;;;126.45;44.13;;;2.20;99.90;;;;;;5117344;28;20019;-66
2023/01/27 08:48:36;;;;;;;90.75;35.85;;;2.30;99.90;;;;;;5117281;28;20054;-66
2023/01/27 08:51:02;;;;;;;112.82;42.28;;;2.40;99.90;;;;;;5104886;28;20028;-67
2023/01/27 08:53:29;;;;;;;150.25;53.65;;;2.30;99.90;;;;;;5114007;28;20077;-66
2023/01/27 08:55:56;;;;;;;148.55;56.38;;;2.20;99.90;;;;;;5117300;28;20080;-67
2023/01/27 08:58:22;;;;;;;110.07;43.88;;;2.10;99.90;;;;;;5111851;28;20028;-67
2023/01/27 09:00:48;;;;;;;77.80;32.30;;;2.20;99.90;;;;;;5115096;28;20019;-66
2023/01/27 09:03:15;;;;;;;68.32;28.85;;;2.20;99.90;;;;;;5117053;28;20114;-66
2023/01/27 09:05:41;;;;;;;47.65;23.75;;;2.30;99.90;;;;;;5117278;28;20053;-66
2023/01/27 09:08:08;;;;;;;64.57;27.73;;;2.20;99.90;;;;;;5115196;28;20032;-66
2023/01/27 09:10:40;;;;;;;99.85;37.45;;;2.30;99.90;;;;;;5106647;28;20031;-67
2023/01/27 09:13:07;;;;;;;69.50;29.55;;;2.50;99.90;;;;;;5104234;28;20024;-67
2023/01/27 09:15:36;;;;;;;81.22;34.03;;;2.40;99.90;;;;;;5102556;28;20385;-67
2023/01/27 09:18:03;;;;;;;65.32;28.38;;;2.30;99.90;;;;;;5110725;28;20396;-66
2023/01/27 09:20:29;;;;;;;45.85;23.65;;;2.40;99.90;;;;;;5110830;28;20180;-65
2023/01/27 09:22:55;;;;;;;43.65;21.15;;;2.40;99.90;;;;;;5116564;28;20020;-67
2023/01/27 09:25:21;;;;;;;53.35;22.80;;;2.50;99.90;;;;;;5112345;28;20061;-67
2023/01/27 09:27:47;;;;;;;52.80;25.95;;;2.40;99.90;;;;;;5113203;28;20036;-66
2023/01/27 09:30:14;;;;;;;40.35;21.98;;;2.50;99.90;;;;;;5114936;27;20369;-67
2023/01/27 09:32:41;;;;;;;43.58;21.13;;;2.50;99.90;;;;;;5116108;28;20330;-66
2023/01/27 09:35:08;;;;;;;43.40;22.50;;;2.50;99.90;;;;;;5115748;28;20085;-66
2023/01/27 09:37:57;;;;;;;44.78;23.27;;;2.50;99.90;;;;;;5114918;28;20034;-68
2023/01/27 09:41:07;;;;;;;41.75;20.52;;;2.60;99.90;;;;;;5114385;28;20028;-66
2023/01/27 09:44:01;;;;;;;40.60;22.23;;;2.50;99.90;;;;;;5006271;28;20147;-68
2023/01/27 09:46:41;;;;;;;32.42;16.98;;;2.50;99.90;;;;;;5006541;28;20038;-68
2023/01/27 09:49:19;;;;;;;54.23;22.30;;;2.40;99.90;;;;;;4991221;28;20063;-68
2023/01/27 09:52:03;;;;;;;54.83;23.73;;;2.50;99.90;;;;;;4992947;28;20290;-68
2023/01/27 09:54:55;;;;;;;84.78;37.10;;;2.30;99.90;;;;;;4986928;28;20124;-66
2023/01/27 09:57:35;;;;;;;85.60;35.85;;;2.40;99.90;;;;;;4993021;28;20036;-66
2023/01/27 10:00:26;;;;;;;89.30;38.70;;;2.50;99.90;;;;;;4993017;28;20373;-66
2023/01/27 10:02:52;;;;;;;;;;;2.40;99.90;;;;;;4993180;28;20054;-67
2023/01/27 10:05:18;;;;;;;108.65;45.65;;;2.50;99.90;;;;;;4993175;28;20011;-67
2023/01/27 10:08:06;;;;;;;88.68;36.25;;;2.70;99.90;;;;;;4993329;28;20050;-66
2023/01/27 10:10:46;;;;;;;63.33;30.10;;;2.70;99.90;;;;;;4993236;28;20050;-67
2023/01/27 10:13:37;;;;;;;72.88;32.60;;;2.70;99.90;;;;;;4992868;28;20050;-67
2023/01/27 10:16:31;;;;;;;42.70;21.33;;;2.70;99.90;;;;;;4985876;28;20081;-67
2023/01/27 10:19:03;;;;;;;65.22;30.83;;;2.70;99.90;;;;;;5001666;28;20227;-68
2023/01/27 10:22:13;;;;;;;64.40;28.23;;;2.80;99.90;;;;;;5102120;28;20028;-68
2023/01/27 10:25:08;;;;;;;58.38;25.55;;;2.90;99.90;;;;;;5099599;28;20139;-68
2023/01/27 10:27:39;;;;;;;48.95;24.50;;;2.90;99.90;;;;;;5078851;28;20042;-68
2023/01/27 10:30:26;;;;;;;;;;;2.70;99.90;;;;;;5095247;28;20469;-66
2023/01/27 10:33:17;;;;;;;52.78;26.00;;;2.80;99.90;;;;;;5094612;28;19960;-66
2023/01/27 10:36:20;;;;;;;68.80;32.92;;;2.70;99.90;;;;;;5094465;28;20028;-66
2023/01/27 10:39:10;;;;;;;64.20;29.67;;;2.80;99.90;;;;;;5099500;28;20028;-66
2023/01/27 10:41:36;;;;;;;85.20;35.07;;;2.80;99.90;;;;;;5106707;28;20491;-66
2023/01/27 10:44:21;;;;;;;72.90;31.50;;;2.90;99.90;;;;;;5102080;28;20122;-66
2023/01/27 10:46:59;;;;;;;62.33;29.55;;;2.90;99.90;;;;;;5094282;28;20470;-65
2023/01/27 10:49:32;;;;;;;29.67;17.73;;;3.00;99.90;;;;;;5094315;28;20040;-65
2023/01/27 10:52:16;;;;;;;35.15;19.70;;;2.90;99.90;;;;;;5094443;28;20547;-65
2023/01/27 10:54:47;;;;;;;28.85;17.17;;;3.10;99.90;;;;;;5094131;28;20442;-65
2023/01/27 10:57:35;;;;;;;36.75;19.17;;;3.00;99.90;;;;;;5094362;28;20020;-65
2023/01/27 11:00:16;;;;;;;35.22;18.83;;;3.00;99.90;;;;;;5094051;28;20032;-65
2023/01/27 11:02:55;;;;;;;29.70;17.38;;;3.00;99.90;;;;;;5093779;28;20097;-65
2023/01/27 11:05:32;;;;;;;27.17;15.90;;;3.10;99.90;;;;;;5096376;28;20464;-65
2023/01/27 11:08:04;;;;;;;27.63;15.90;;;3.00;99.90;;;;;;5114270;28;20032;-65
2023/01/27 11:10:38;;;;;;;28.75;16.98;;;2.90;99.90;;;;;;5114492;28;20043;-65
2023/01/27 11:13:05;;;;;;;28.23;17.40;;;2.90;99.90;;;;;;5114637;28;20032;-66
2023/01/27 11:15:33;;;;;;;27.17;15.45;;;2.90;99.90;;;;;;5114345;28;20038;-66
2023/01/27 11:18:34;;;;;;;25.85;14.82;;;2.90;99.90;;;;;;5114442;28;20350;-66
2023/01/27 11:21:05;;;;;;;20.75;12.68;;;2.90;99.90;;;;;;5070994;28;20118;-66
2023/01/27 11:23:41;;;;;;;29.25;15.70;;;2.80;99.90;;;;;;5114364;28;20031;-66
2023/01/27 11:26:52;;;;;;;28.00;14.52;;;2.80;99.90;;;;;;5114123;28;20533;-66
2023/01/27 11:29:57;;;;;;;26.63;14.43;;;2.90;99.90;;;;;;5031288;28;20499;-66
2023/01/27 11:32:57;;;;;;;29.80;17.08;;;2.70;99.90;;;;;;5001980;28;20073;-66
2023/01/27 11:35:23;;;;;;;24.27;14.67;;;2.80;99.90;;;;;;5031353;28;20179;-66
2023/01/27 11:37:51;;;;;;;25.00;15.02;;;2.70;99.90;;;;;;5031135;28;20033;-66
2023/01/27 11:40:21;;;;;;;28.92;15.32;;;2.60;99.90;;;;;;5031410;28;20041;-66
2023/01/27 11:42:47;;;;;;;30.33;17.92;;;2.60;99.90;;;;;;5031327;28;20030;-66
2023/01/27 11:45:19;;;;;;;30.10;17.02;;;2.70;99.90;;;;;;5031183;28;20117;-66
2023/01/27 11:47:48;;;;;;;34.03;18.75;;;2.70;99.90;;;;;;5031161;28;20045;-66
2023/01/27 11:50:16;;;;;;;29.90;17.30;;;2.60;99.90;;;;;;5030769;28;20041;-66
2023/01/27 11:52:47;;;;;;;34.22;18.40;;;2.50;99.90;;;;;;5031169;28;20065;-66
2023/01/27 11:55:13;;;;;;;33.65;20.38;;;2.60;99.90;;;;;;5034843;28;20479;-66
2023/01/27 11:57:45;;;;;;;30.90;19.65;;;2.50;99.90;;;;;;5033975;28;20200;-66
2023/01/27 12:00:25;;;;;;;33.60;20.85;;;2.60;99.90;;;;;;5081686;28;20048;-66
2023/01/27 12:03:05;;;;;;;43.47;22.67;;;2.70;99.90;;;;;;5116161;28;20048;-66
2023/01/27 12:05:35;;;;;;;30.58;20.15;;;2.60;99.90;;;;;;5117593;28;20053;-66
2023/01/27 12:08:03;;;;;;;30.13;18.33;;;2.60;99.90;;;;;;5117379;28;20106;-66
2023/01/27 12:10:34;;;;;;;36.85;19.75;;;2.50;99.90;;;;;;5116002;28;20060;-66
2023/01/27 12:13:06;;;;;;;;;;;2.60;99.90;;;;;;5118004;28;20477;-66
2023/01/27 12:15:33;;;;;;;36.83;18.45;;;2.60;99.90;;;;;;5117087;28;19922;-66
2023/01/27 12:18:02;;;;;;;34.30;18.20;;;2.50;99.90;;;;;;5117382;28;20089;-66
2023/01/27 12:20:45;;;;;;;27.95;16.83;;;2.30;99.90;;;;;;5117417;28;20028;-66
2023/01/27 12:23:18;;;;;;;27.48;16.83;;;2.20;99.90;;;;;;5116572;28;20027;-66
2023/01/27 12:25:52;;;;;;;29.23;18.20;;;2.30;99.90;;;;;;5117235;28;20053;-66
2023/01/27 12:28:27;;;;;;;32.33;18.35;;;2.20;99.90;;;;;;5117124;28;20035;-66
2023/01/27 12:30:56;;;;;;;32.13;19.42;;;2.30;99.90;;;;;;5117474;28;20031;-66
2023/01/27 12:33:28;;;;;;;33.13;20.08;;;2.30;99.90;;;;;;5117459;27;20030;-66
2023/01/27 12:35:59;;;;;;;32.72;19.15;;;2.30;99.90;;;;;;5116829;28;20057;-66
2023/01/27 12:38:30;;;;;;;36.58;20.40;;;2.30;99.90;;;;;;5116897;28;20088;-66
2023/01/27 12:41:08;;;;;;;37.35;21.50;;;2.40;99.90;;;;;;5116982;28;20048;-66
2023/01/27 12:43:54;;;;;;;35.70;21.83;;;2.60;99.90;;;;;;5116841;28;20034;-66
2023/01/27 12:46:23;;;;;;;35.92;21.48;;;2.60;99.90;;;;;;5116665;28;20027;-66
2023/01/27 12:48:51;;;;;;;42.55;25.17;;;2.60;99.90;;;;;;5116026;28;20055;-66
2023/01/27 12:51:21;;;;;;;44.90;26.70;;;2.40;99.90;;;;;;5116875;28;20024;-66
2023/01/27 12:53:49;;;;;;;49.33;26.90;;;2.40;99.90;;;;;;5116368;28;20035;-66
2023/01/27 12:56:21;;;;;;;48.30;25.70;;;2.40;99.90;;;;;;5116609;27;20039;-66
2023/01/27 12:58:53;;;;;;;46.92;25.73;;;2.40;99.90;;;;;;5116445;28;20522;-68
2023/01/27 13:01:27;;;;;;;66.50;36.45;;;2.40;99.90;;;;;;5116187;28;20040;-66
2023/01/27 13:04:08;;;;;;;44.05;24.58;;;2.30;99.90;;;;;;5117105;28;20071;-66
2023/01/27 13:06:43;;;;;;;43.40;24.40;;;2.30;99.90;;;;;;5116643;28;20039;-66
2023/01/27 13:09:48;;;;;;;44.10;26.00;;;2.20;99.90;;;;;;5116314;28;20204;-66
2023/01/27 13:12:29;;;;;;;48.17;27.05;;;2.20;99.90;;;;;;5116407;28;20042;-66
2023/01/27 13:15:07;;;;;;;;;;;2.20;99.90;;;;;;5116379;28;20110;-66
2023/01/27 13:17:47;;;;;;;45.38;22.05;;;2.20;99.90;;;;;;5116067;28;19907;-66
2023/01/27 13:20:22;;;;;;;38.43;21.10;;;2.10;99.90;;;;;;5113341;28;20059;-66
2023/01/27 13:22:53;;;;;;;42.25;23.23;;;2.10;99.90;;;;;;5106520;28;20035;-66
2023/01/27 13:25:50;;;;;;;57.28;28.90;;;2.10;99.90;;;;;;5115589;28;20089;-66
2023/01/27 13:28:38;;;;;;;38.22;22.63;;;2.20;99.90;;;;;;5116050;28;20375;-66
2023/01/27 13:31:11;;;;;;;42.72;23.98;;;2.10;99.90;;;;;;5115776;28;20499;-66
2023/01/27 13:33:44;;;;;;;51.17;27.80;;;2.10;99.90;;;;;;5114418;28;20092;-66